sensor_id;sensor_type;location;lat;lon;timestamp;temperature;humidity
14739;DHT22;7461;52.440;13.540;2022-08-19T00:01:33;21.00;99.90
14739;DHT22;7461;52.440;13.540;2022-08-19T00:04:03;21.00;99.90
14739;DHT22;7461;52.440;13.540;2022-08-19T00:06:31;21.00;99.90
14739;DHT22;7461;52.440;13.540;2022-08-19T00:08:59;21.00;99.90
14739;DHT22;7461;52.440;13.540;2022-08-19T00:11:28;21.00;99.90
14739;DHT22;7461;52.440;13.540;2022-08-19T00:13:55;20.90;99.90
14739;DHT22;7461;52.440;13.540;2022-08-19T00:16:23;20.90;99.90
14739;DHT22;7461;52.440;13.540;2022-08-19T00:18:51;20.90;99.90
14739;DHT22;7461;52.440;13.540;2022-08-19T00:21:17;20.90;99.90
14739;DHT22;7461;52.440;13.540;2022-08-19T00:23:44;20.80;99.90
14739;DHT22;7461;52.440;13.540;2022-08-19T00:26:11;20.90;99.90
14739;DHT22;7461;52.440;13.540;2022-08-19T00:28:40;20.90;99.90
14739;DHT22;7461;52.440;13.540;2022-08-19T00:31:08;20.80;99.90
14739;DHT22;7461;52.440;13.540;2022-08-19T00:33:35;20.80;99.90
14739;DHT22;7461;52.440;13.540;2022-08-19T00:36:05;20.80;99.90
14739;DHT22;7461;52.440;13.540;2022-08-19T00:38:32;20.80;99.90
14739;DHT22;7461;52.440;13.540;2022-08-19T00:40:59;20.70;99.90
14739;DHT22;7461;52.440;13.540;2022-08-19T00:43:27;20.70;99.90
14739;DHT22;7461;52.440;13.540;2022-08-19T00:45:55;20.60;99.90
14739;DHT22;7461;52.440;13.540;2022-08-19T00:48:22;20.60;99.90
14739;DHT22;7461;52.440;13.540;2022-08-19T00:50:50;20.60;99.90
14739;DHT22;7461;52.440;13.540;2022-08-19T00:53:21;20.60;99.90
14739;DHT22;7461;52.440;13.540;2022-08-19T00:55:51;20.60;99.90
14739;DHT22;7461;52.440;13.540;2022-08-19T00:58:21;20.60;99.90
14739;DHT22;7461;52.440;13.540;2022-08-19T01:00:48;20.70;99.90
14739;DHT22;7461;52.440;13.540;2022-08-19T01:03:19;20.60;99.90
14739;DHT22;7461;52.440;13.540;2022-08-19T01:05:48;20.60;99.90
14739;DHT22;7461;52.440;13.540;2022-08-19T01:08:17;20.60;99.90
14739;DHT22;7461;52.440;13.540;2022-08-19T01:10:48;20.60;99.90
14739;DHT22;7461;52.440;13.540;2022-08-19T01:13:16;20.60;99.90
14739;DHT22;7461;52.440;13.540;2022-08-19T01:15:46;20.60;99.90
14739;DHT22;7461;52.440;13.540;2022-08-19T01:18:16;20.50;99.90
14739;DHT22;7461;52.440;13.540;2022-08-19T01:20:44;20.50;99.90
14739;DHT22;7461;52.440;13.540;2022-08-19T01:23:14;20.40;99.90
14739;DHT22;7461;52.440;13.540;2022-08-19T01:25:46;20.30;99.90
14739;DHT22;7461;52.440;13.540;2022-08-19T01:28:16;20.30;99.90
14739;DHT22;7461;52.440;13.540;2022-08-19T01:30:44;20.20;99.90
14739;DHT22;7461;52.440;13.540;2022-08-19T01:33:11;20.10;99.90
14739;DHT22;7461;52.440;13.540;2022-08-19T01:35:39;20.00;99.90
14739;DHT22;7461;52.440;13.540;2022-08-19T01:38:08;19.90;99.90
14739;DHT22;7461;52.440;13.540;2022-08-19T01:40:39;19.90;99.90
14739;DHT22;7461;52.440;13.540;2022-08-19T01:43:08;19.80;99.90
14739;DHT22;7461;52.440;13.540;2022-08-19T01:45:35;19.70;99.90
14739;DHT22;7461;52.440;13.540;2022-08-19T01:48:03;19.70;99.90
14739;DHT22;7461;52.440;13.540;2022-08-19T01:50:31;19.70;99.90
14739;DHT22;7461;52.440;13.540;2022-08-19T01:52:59;19.70;99.90
14739;DHT22;7461;52.440;13.540;2022-08-19T01:55:27;19.60;99.90
14739;DHT22;7461;52.440;13.540;2022-08-19T01:57:58;19.60;99.90
14739;DHT22;7461;52.440;13.540;2022-08-19T02:00:28;19.60;99.90
14739;DHT22;7461;52.440;13.540;2022-08-19T02:02:56;19.70;99.90
14739;DHT22;7461;52.440;13.540;2022-08-19T02:05:23;19.70;99.90
14739;DHT22;7461;52.440;13.540;2022-08-19T02:07:50;19.80;99.90
14739;DHT22;7461;52.440;13.540;2022-08-19T02:10:20;19.80;99.90
14739;DHT22;7461;52.440;13.540;2022-08-19T02:12:48;19.80;99.90
14739;DHT22;7461;52.440;13.540;2022-08-19T02:15:18;19.80;99.90
14739;DHT22;7461;52.440;13.540;2022-08-19T02:17:45;19.80;99.90
14739;DHT22;7461;52.440;13.540;2022-08-19T02:20:13;19.90;99.90
14739;DHT22;7461;52.440;13.540;2022-08-19T02:22:40;19.80;99.90
14739;DHT22;7461;52.440;13.540;2022-08-19T02:25:08;19.80;99.90
14739;DHT22;7461;52.440;13.540;2022-08-19T02:27:35;19.80;99.90
14739;DHT22;7461;52.440;13.540;2022-08-19T02:30:04;19.80;99.90
14739;DHT22;7461;52.440;13.540;2022-08-19T02:32:32;19.80;99.90
14739;DHT22;7461;52.440;13.540;2022-08-19T02:34:59;19.80;99.90
14739;DHT22;7461;52.440;13.540;2022-08-19T02:37:27;19.70;99.90
14739;DHT22;7461;52.440;13.540;2022-08-19T02:40:11;19.70;99.90
14739;DHT22;7461;52.440;13.540;2022-08-19T02:42:39;19.70;99.90
14739;DHT22;7461;52.440;13.540;2022-08-19T02:45:09;19.70;99.90
14739;DHT22;7461;52.440;13.540;2022-08-19T02:47:37;19.70;99.90
14739;DHT22;7461;52.440;13.540;2022-08-19T02:50:06;19.70;99.90
14739;DHT22;7461;52.440;13.540;2022-08-19T02:52:33;19.70;99.90
14739;DHT22;7461;52.440;13.540;2022-08-19T02:55:01;19.70;99.90
14739;DHT22;7461;52.440;13.540;2022-08-19T02:57:29;19.70;99.90
14739;DHT22;7461;52.440;13.540;2022-08-19T02:59:56;19.70;99.90
14739;DHT22;7461;52.440;13.540;2022-08-19T03:02:23;19.70;99.90
14739;DHT22;7461;52.440;13.540;2022-08-19T03:04:51;19.70;99.90
14739;DHT22;7461;52.440;13.540;2022-08-19T03:07:19;19.70;99.90
14739;DHT22;7461;52.440;13.540;2022-08-19T03:09:46;19.70;99.90
14739;DHT22;7461;52.440;13.540;2022-08-19T03:12:12;19.70;99.90
14739;DHT22;7461;52.440;13.540;2022-08-19T03:14:39;19.70;99.90
14739;DHT22;7461;52.440;13.540;2022-08-19T03:17:06;19.70;99.90
14739;DHT22;7461;52.440;13.540;2022-08-19T03:19:33;19.70;99.90
14739;DHT22;7461;52.440;13.540;2022-08-19T03:22:02;19.70;99.90
14739;DHT22;7461;52.440;13.540;2022-08-19T03:24:29;19.70;99.90
14739;DHT22;7461;52.440;13.540;2022-08-19T03:26:57;19.70;99.90
14739;DHT22;7461;52.440;13.540;2022-08-19T03:29:25;19.70;99.90
14739;DHT22;7461;52.440;13.540;2022-08-19T03:31:53;19.70;99.90
14739;DHT22;7461;52.440;13.540;2022-08-19T03:34:23;19.70;99.90
14739;DHT22;7461;52.440;13.540;2022-08-19T03:36:52;19.70;99.90
14739;DHT22;7461;52.440;13.540;2022-08-19T03:39:21;19.70;99.90
14739;DHT22;7461;52.440;13.540;2022-08-19T03:41:50;19.70;99.90
14739;DHT22;7461;52.440;13.540;2022-08-19T03:44:18;19.70;99.90
14739;DHT22;7461;52.440;13.540;2022-08-19T03:46:47;19.70;99.90
14739;DHT22;7461;52.440;13.540;2022-08-19T03:49:14;19.70;99.90
14739;DHT22;7461;52.440;13.540;2022-08-19T03:51:42;19.60;99.90
14739;DHT22;7461;52.440;13.540;2022-08-19T03:54:10;19.60;99.90
14739;DHT22;7461;52.440;13.540;2022-08-19T03:56:40;19.50;99.90
14739;DHT22;7461;52.440;13.540;2022-08-19T03:59:09;19.50;99.90
14739;DHT22;7461;52.440;13.540;2022-08-19T04:01:36;19.50;99.90
14739;DHT22;7461;52.440;13.540;2022-08-19T04:04:04;19.50;99.90
14739;DHT22;7461;52.440;13.540;2022-08-19T04:06:33;19.50;99.90
14739;DHT22;7461;52.440;13.540;2022-08-19T04:09:02;19.50;99.90
14739;DHT22;7461;52.440;13.540;2022-08-19T04:11:34;19.50;99.90
14739;DHT22;7461;52.440;13.540;2022-08-19T04:14:02;19.50;99.90
14739;DHT22;7461;52.440;13.540;2022-08-19T04:16:29;19.60;99.90
14739;DHT22;7461;52.440;13.540;2022-08-19T04:18:59;19.50;99.90
14739;DHT22;7461;52.440;13.540;2022-08-19T04:21:27;19.60;99.90
14739;DHT22;7461;52.440;13.540;2022-08-19T04:23:55;19.60;99.90
14739;DHT22;7461;52.440;13.540;2022-08-19T04:26:24;19.60;99.90
14739;DHT22;7461;52.440;13.540;2022-08-19T04:28:52;19.60;99.90
14739;DHT22;7461;52.440;13.540;2022-08-19T04:31:23;19.50;99.90
14739;DHT22;7461;52.440;13.540;2022-08-19T04:33:51;19.60;99.90
14739;DHT22;7461;52.440;13.540;2022-08-19T04:36:21;19.60;99.90
14739;DHT22;7461;52.440;13.540;2022-08-19T04:38:49;19.60;99.90
14739;DHT22;7461;52.440;13.540;2022-08-19T04:41:16;19.60;99.90
14739;DHT22;7461;52.440;13.540;2022-08-19T04:44:00;19.60;99.90
14739;DHT22;7461;52.440;13.540;2022-08-19T04:46:29;19.60;99.90
14739;DHT22;7461;52.440;13.540;2022-08-19T04:48:57;19.60;99.90
14739;DHT22;7461;52.440;13.540;2022-08-19T04:51:24;19.60;99.90
14739;DHT22;7461;52.440;13.540;2022-08-19T04:53:51;19.60;99.90
14739;DHT22;7461;52.440;13.540;2022-08-19T04:56:20;19.60;99.90
14739;DHT22;7461;52.440;13.540;2022-08-19T04:58:48;19.60;99.90
14739;DHT22;7461;52.440;13.540;2022-08-19T05:01:19;19.60;99.90
14739;DHT22;7461;52.440;13.540;2022-08-19T05:03:47;19.60;99.90
14739;DHT22;7461;52.440;13.540;2022-08-19T05:06:16;19.60;99.90
14739;DHT22;7461;52.440;13.540;2022-08-19T05:08:45;19.70;99.90
14739;DHT22;7461;52.440;13.540;2022-08-19T05:11:14;19.70;99.90
14739;DHT22;7461;52.440;13.540;2022-08-19T05:13:42;19.70;99.90
14739;DHT22;7461;52.440;13.540;2022-08-19T05:16:10;19.70;99.90
14739;DHT22;7461;52.440;13.540;2022-08-19T05:18:37;19.70;99.90
14739;DHT22;7461;52.440;13.540;2022-08-19T05:21:24;19.70;99.90
14739;DHT22;7461;52.440;13.540;2022-08-19T05:24:09;19.70;99.90
14739;DHT22;7461;52.440;13.540;2022-08-19T05:26:36;19.70;99.90
14739;DHT22;7461;52.440;13.540;2022-08-19T05:29:03;19.70;99.90
14739;DHT22;7461;52.440;13.540;2022-08-19T05:31:31;19.70;99.90
14739;DHT22;7461;52.440;13.540;2022-08-19T05:33:58;19.70;99.90
14739;DHT22;7461;52.440;13.540;2022-08-19T05:36:28;19.70;99.90
14739;DHT22;7461;52.440;13.540;2022-08-19T05:38:56;19.70;99.90
14739;DHT22;7461;52.440;13.540;2022-08-19T05:41:22;19.70;99.90
14739;DHT22;7461;52.440;13.540;2022-08-19T05:43:54;19.70;99.90
14739;DHT22;7461;52.440;13.540;2022-08-19T05:46:21;19.80;99.90
14739;DHT22;7461;52.440;13.540;2022-08-19T05:48:48;19.80;99.90
14739;DHT22;7461;52.440;13.540;2022-08-19T05:51:15;19.80;99.90
14739;DHT22;7461;52.440;13.540;2022-08-19T05:53:44;19.80;99.90
14739;DHT22;7461;52.440;13.540;2022-08-19T05:56:18;19.80;99.90
14739;DHT22;7461;52.440;13.540;2022-08-19T05:58:49;19.80;99.90
14739;DHT22;7461;52.440;13.540;2022-08-19T06:01:17;19.90;99.90
14739;DHT22;7461;52.440;13.540;2022-08-19T06:03:45;19.90;99.90
14739;DHT22;7461;52.440;13.540;2022-08-19T06:06:14;19.90;99.90
14739;DHT22;7461;52.440;13.540;2022-08-19T06:08:42;20.00;99.90
14739;DHT22;7461;52.440;13.540;2022-08-19T06:11:18;20.00;99.90
14739;DHT22;7461;52.440;13.540;2022-08-19T06:13:46;20.00;99.90
14739;DHT22;7461;52.440;13.540;2022-08-19T06:16:16;20.10;99.90
14739;DHT22;7461;52.440;13.540;2022-08-19T06:18:48;20.00;99.90
14739;DHT22;7461;52.440;13.540;2022-08-19T06:21:17;20.00;99.90
14739;DHT22;7461;52.440;13.540;2022-08-19T06:23:44;20.10;99.90
14739;DHT22;7461;52.440;13.540;2022-08-19T06:26:11;20.10;99.90
14739;DHT22;7461;52.440;13.540;2022-08-19T06:28:40;20.10;99.90
14739;DHT22;7461;52.440;13.540;2022-08-19T06:31:09;20.10;99.90
14739;DHT22;7461;52.440;13.540;2022-08-19T06:33:36;20.20;99.90
14739;DHT22;7461;52.440;13.540;2022-08-19T06:36:03;20.20;99.90
14739;DHT22;7461;52.440;13.540;2022-08-19T06:38:31;20.20;99.90
14739;DHT22;7461;52.440;13.540;2022-08-19T06:41:01;20.30;99.90
14739;DHT22;7461;52.440;13.540;2022-08-19T06:43:28;20.30;99.90
14739;DHT22;7461;52.440;13.540;2022-08-19T06:45:56;20.40;99.90
14739;DHT22;7461;52.440;13.540;2022-08-19T06:48:24;20.40;99.90
14739;DHT22;7461;52.440;13.540;2022-08-19T06:50:51;20.40;99.90
14739;DHT22;7461;52.440;13.540;2022-08-19T06:53:18;20.50;99.90
14739;DHT22;7461;52.440;13.540;2022-08-19T06:55:45;20.50;99.90
14739;DHT22;7461;52.440;13.540;2022-08-19T06:58:12;20.50;99.90
14739;DHT22;7461;52.440;13.540;2022-08-19T07:00:39;20.50;99.90
14739;DHT22;7461;52.440;13.540;2022-08-19T07:03:08;20.50;99.90
14739;DHT22;7461;52.440;13.540;2022-08-19T07:05:40;20.60;99.90
14739;DHT22;7461;52.440;13.540;2022-08-19T07:08:07;20.60;99.90
14739;DHT22;7461;52.440;13.540;2022-08-19T07:10:34;20.60;99.90
14739;DHT22;7461;52.440;13.540;2022-08-19T07:13:02;20.50;99.90
14739;DHT22;7461;52.440;13.540;2022-08-19T07:15:29;20.50;99.90
14739;DHT22;7461;52.440;13.540;2022-08-19T07:17:56;20.50;99.90
14739;DHT22;7461;52.440;13.540;2022-08-19T07:20:24;20.50;99.90
14739;DHT22;7461;52.440;13.540;2022-08-19T07:22:51;20.50;99.90
14739;DHT22;7461;52.440;13.540;2022-08-19T07:25:21;20.60;99.90
14739;DHT22;7461;52.440;13.540;2022-08-19T07:27:48;20.60;99.90
14739;DHT22;7461;52.440;13.540;2022-08-19T07:30:16;20.60;99.90
14739;DHT22;7461;52.440;13.540;2022-08-19T07:32:43;20.70;99.90
14739;DHT22;7461;52.440;13.540;2022-08-19T07:35:10;20.70;99.90
14739;DHT22;7461;52.440;13.540;2022-08-19T07:37:38;20.70;99.90
14739;DHT22;7461;52.440;13.540;2022-08-19T07:40:10;20.80;99.90
14739;DHT22;7461;52.440;13.540;2022-08-19T07:42:37;20.80;99.90
14739;DHT22;7461;52.440;13.540;2022-08-19T07:45:05;20.90;99.90
14739;DHT22;7461;52.440;13.540;2022-08-19T07:47:32;20.90;99.90
14739;DHT22;7461;52.440;13.540;2022-08-19T07:49:59;20.90;99.90
14739;DHT22;7461;52.440;13.540;2022-08-19T07:52:26;20.90;99.90
14739;DHT22;7461;52.440;13.540;2022-08-19T07:54:54;20.90;99.90
14739;DHT22;7461;52.440;13.540;2022-08-19T07:57:21;20.80;99.90
14739;DHT22;7461;52.440;13.540;2022-08-19T07:59:48;20.80;99.90
14739;DHT22;7461;52.440;13.540;2022-08-19T08:02:15;21.00;99.90
14739;DHT22;7461;52.440;13.540;2022-08-19T08:04:42;21.00;99.90
14739;DHT22;7461;52.440;13.540;2022-08-19T08:07:26;21.00;99.90
14739;DHT22;7461;52.440;13.540;2022-08-19T08:10:11;21.10;99.90
14739;DHT22;7461;52.440;13.540;2022-08-19T08:12:39;21.10;99.90
14739;DHT22;7461;52.440;13.540;2022-08-19T08:15:09;21.10;99.90
14739;DHT22;7461;52.440;13.540;2022-08-19T08:17:36;21.20;99.90
14739;DHT22;7461;52.440;13.540;2022-08-19T08:20:05;21.20;99.90
14739;DHT22;7461;52.440;13.540;2022-08-19T08:22:33;21.20;99.90
14739;DHT22;7461;52.440;13.540;2022-08-19T08:25:20;21.20;99.90
14739;DHT22;7461;52.440;13.540;2022-08-19T08:27:48;21.20;99.90
14739;DHT22;7461;52.440;13.540;2022-08-19T08:30:17;21.30;99.90
14739;DHT22;7461;52.440;13.540;2022-08-19T08:32:44;21.30;99.90
14739;DHT22;7461;52.440;13.540;2022-08-19T08:35:13;21.50;99.90
14739;DHT22;7461;52.440;13.540;2022-08-19T08:37:40;21.60;99.90
14739;DHT22;7461;52.440;13.540;2022-08-19T08:40:16;21.70;99.90
14739;DHT22;7461;52.440;13.540;2022-08-19T08:42:51;21.60;99.90
14739;DHT22;7461;52.440;13.540;2022-08-19T08:45:22;21.70;99.90
14739;DHT22;7461;52.440;13.540;2022-08-19T08:47:52;21.70;99.90
14739;DHT22;7461;52.440;13.540;2022-08-19T08:50:25;21.70;99.90
14739;DHT22;7461;52.440;13.540;2022-08-19T08:52:57;21.70;99.90
14739;DHT22;7461;52.440;13.540;2022-08-19T08:55:27;21.70;99.90
14739;DHT22;7461;52.440;13.540;2022-08-19T08:58:00;21.70;99.90
14739;DHT22;7461;52.440;13.540;2022-08-19T09:00:31;21.70;99.90
14739;DHT22;7461;52.440;13.540;2022-08-19T09:03:00;21.80;99.90
14739;DHT22;7461;52.440;13.540;2022-08-19T09:05:35;21.90;99.90
14739;DHT22;7461;52.440;13.540;2022-08-19T09:08:13;21.90;99.90
14739;DHT22;7461;52.440;13.540;2022-08-19T09:10:44;22.00;99.90
14739;DHT22;7461;52.440;13.540;2022-08-19T09:13:20;22.00;99.90
14739;DHT22;7461;52.440;13.540;2022-08-19T09:15:53;22.10;99.90
14739;DHT22;7461;52.440;13.540;2022-08-19T09:18:23;22.10;99.90
14739;DHT22;7461;52.440;13.540;2022-08-19T09:20:50;22.10;99.90
14739;DHT22;7461;52.440;13.540;2022-08-19T09:23:17;22.10;99.90
14739;DHT22;7461;52.440;13.540;2022-08-19T09:25:45;22.10;99.90
14739;DHT22;7461;52.440;13.540;2022-08-19T09:28:12;22.10;99.90
14739;DHT22;7461;52.440;13.540;2022-08-19T09:30:41;22.10;99.90
14739;DHT22;7461;52.440;13.540;2022-08-19T09:33:08;22.10;99.90
14739;DHT22;7461;52.440;13.540;2022-08-19T09:35:35;22.10;99.90
14739;DHT22;7461;52.440;13.540;2022-08-19T09:38:02;22.10;99.90
14739;DHT22;7461;52.440;13.540;2022-08-19T09:40:30;22.10;99.90
14739;DHT22;7461;52.440;13.540;2022-08-19T09:42:58;22.10;99.90
14739;DHT22;7461;52.440;13.540;2022-08-19T09:45:26;22.10;99.90
14739;DHT22;7461;52.440;13.540;2022-08-19T09:47:54;22.10;99.90
14739;DHT22;7461;52.440;13.540;2022-08-19T09:50:22;22.10;99.90
14739;DHT22;7461;52.440;13.540;2022-08-19T09:52:50;22.10;99.90
14739;DHT22;7461;52.440;13.540;2022-08-19T09:55:19;22.10;99.90
14739;DHT22;7461;52.440;13.540;2022-08-19T09:57:45;22.10;99.90
14739;DHT22;7461;52.440;13.540;2022-08-19T10:00:14;22.10;99.90
14739;DHT22;7461;52.440;13.540;2022-08-19T10:02:41;22.10;99.90
14739;DHT22;7461;52.440;13.540;2022-08-19T10:05:09;22.10;99.90
14739;DHT22;7461;52.440;13.540;2022-08-19T10:07:53;22.10;99.90
14739;DHT22;7461;52.440;13.540;2022-08-19T10:10:20;22.10;99.90
14739;DHT22;7461;52.440;13.540;2022-08-19T10:12:47;22.10;99.90
14739;DHT22;7461;52.440;13.540;2022-08-19T10:15:14;22.20;99.90
14739;DHT22;7461;52.440;13.540;2022-08-19T10:17:42;22.30;99.90
14739;DHT22;7461;52.440;13.540;2022-08-19T10:20:10;22.30;99.90
14739;DHT22;7461;52.440;13.540;2022-08-19T10:22:37;22.40;99.90
14739;DHT22;7461;52.440;13.540;2022-08-19T10:25:06;22.40;99.90
14739;DHT22;7461;52.440;13.540;2022-08-19T10:27:33;22.50;99.90
14739;DHT22;7461;52.440;13.540;2022-08-19T10:30:00;22.50;99.90
14739;DHT22;7461;52.440;13.540;2022-08-19T10:32:27;22.50;99.90
14739;DHT22;7461;52.440;13.540;2022-08-19T10:34:55;22.50;99.90
14739;DHT22;7461;52.440;13.540;2022-08-19T10:37:23;22.50;99.90
14739;DHT22;7461;52.440;13.540;2022-08-19T10:39:50;22.50;99.90
14739;DHT22;7461;52.440;13.540;2022-08-19T10:42:17;22.50;99.90
14739;DHT22;7461;52.440;13.540;2022-08-19T10:44:44;22.50;99.90
14739;DHT22;7461;52.440;13.540;2022-08-19T10:47:13;22.50;99.90
14739;DHT22;7461;52.440;13.540;2022-08-19T10:49:40;22.50;99.90
14739;DHT22;7461;52.440;13.540;2022-08-19T10:52:21;22.60;99.90
14739;DHT22;7461;52.440;13.540;2022-08-19T10:55:03;22.60;99.90
14739;DHT22;7461;52.440;13.540;2022-08-19T10:57:48;22.60;99.90
14739;DHT22;7461;52.440;13.540;2022-08-19T11:00:15;22.60;99.90
14739;DHT22;7461;52.440;13.540;2022-08-19T11:02:42;22.60;99.90
14739;DHT22;7461;52.440;13.540;2022-08-19T11:05:09;22.60;99.90
14739;DHT22;7461;52.440;13.540;2022-08-19T11:07:37;22.60;99.90
14739;DHT22;7461;52.440;13.540;2022-08-19T11:10:08;22.60;99.90
14739;DHT22;7461;52.440;13.540;2022-08-19T11:12:36;22.50;99.90
14739;DHT22;7461;52.440;13.540;2022-08-19T11:15:05;22.50;99.90
14739;DHT22;7461;52.440;13.540;2022-08-19T11:17:33;22.60;99.90
14739;DHT22;7461;52.440;13.540;2022-08-19T11:20:00;22.60;99.90
14739;DHT22;7461;52.440;13.540;2022-08-19T11:22:30;22.60;99.90
14739;DHT22;7461;52.440;13.540;2022-08-19T11:24:57;22.60;99.90
14739;DHT22;7461;52.440;13.540;2022-08-19T11:27:25;22.60;99.90
14739;DHT22;7461;52.440;13.540;2022-08-19T11:29:54;22.50;99.90
14739;DHT22;7461;52.440;13.540;2022-08-19T11:32:21;22.50;99.90
14739;DHT22;7461;52.440;13.540;2022-08-19T11:34:48;22.60;99.90
14739;DHT22;7461;52.440;13.540;2022-08-19T11:37:15;22.60;99.90
14739;DHT22;7461;52.440;13.540;2022-08-19T11:39:42;22.70;99.90
14739;DHT22;7461;52.440;13.540;2022-08-19T11:42:08;22.70;99.90
14739;DHT22;7461;52.440;13.540;2022-08-19T11:44:54;22.80;99.90
14739;DHT22;7461;52.440;13.540;2022-08-19T11:47:21;22.80;99.90
14739;DHT22;7461;52.440;13.540;2022-08-19T11:49:49;22.90;99.90
14739;DHT22;7461;52.440;13.540;2022-08-19T11:52:18;22.90;99.90
14739;DHT22;7461;52.440;13.540;2022-08-19T11:54:45;22.90;99.90
14739;DHT22;7461;52.440;13.540;2022-08-19T11:57:12;22.90;99.90
14739;DHT22;7461;52.440;13.540;2022-08-19T11:59:42;23.00;99.90
14739;DHT22;7461;52.440;13.540;2022-08-19T12:02:10;23.00;99.90
14739;DHT22;7461;52.440;13.540;2022-08-19T12:04:37;23.10;99.90
14739;DHT22;7461;52.440;13.540;2022-08-19T12:07:04;23.20;99.90
14739;DHT22;7461;52.440;13.540;2022-08-19T12:09:31;23.20;99.90
14739;DHT22;7461;52.440;13.540;2022-08-19T12:11:59;23.20;99.90
14739;DHT22;7461;52.440;13.540;2022-08-19T12:14:27;23.20;99.90
14739;DHT22;7461;52.440;13.540;2022-08-19T12:16:56;23.20;99.90
14739;DHT22;7461;52.440;13.540;2022-08-19T12:19:24;23.10;99.90
14739;DHT22;7461;52.440;13.540;2022-08-19T12:21:51;23.10;99.90
14739;DHT22;7461;52.440;13.540;2022-08-19T12:24:20;23.20;99.90
14739;DHT22;7461;52.440;13.540;2022-08-19T12:26:49;23.20;99.90
14739;DHT22;7461;52.440;13.540;2022-08-19T12:29:16;23.20;99.90
14739;DHT22;7461;52.440;13.540;2022-08-19T12:31:43;23.20;99.90
14739;DHT22;7461;52.440;13.540;2022-08-19T12:34:10;23.10;99.90
14739;DHT22;7461;52.440;13.540;2022-08-19T12:36:39;23.10;99.90
14739;DHT22;7461;52.440;13.540;2022-08-19T12:39:06;23.10;99.90
14739;DHT22;7461;52.440;13.540;2022-08-19T12:41:34;23.20;99.90
14739;DHT22;7461;52.440;13.540;2022-08-19T12:44:01;23.10;99.90
14739;DHT22;7461;52.440;13.540;2022-08-19T12:46:27;23.10;99.90
14739;DHT22;7461;52.440;13.540;2022-08-19T12:48:54;23.20;99.90
14739;DHT22;7461;52.440;13.540;2022-08-19T12:51:21;23.20;99.90
14739;DHT22;7461;52.440;13.540;2022-08-19T12:53:49;23.30;99.90
14739;DHT22;7461;52.440;13.540;2022-08-19T12:56:17;23.30;99.90
14739;DHT22;7461;52.440;13.540;2022-08-19T12:58:44;23.30;99.90
14739;DHT22;7461;52.440;13.540;2022-08-19T13:01:13;23.30;99.90
14739;DHT22;7461;52.440;13.540;2022-08-19T13:03:41;23.30;99.90
14739;DHT22;7461;52.440;13.540;2022-08-19T13:06:09;23.30;99.90
14739;DHT22;7461;52.440;13.540;2022-08-19T13:08:38;23.40;99.90
14739;DHT22;7461;52.440;13.540;2022-08-19T13:11:11;23.40;99.90
14739;DHT22;7461;52.440;13.540;2022-08-19T13:13:39;23.40;99.90
14739;DHT22;7461;52.440;13.540;2022-08-19T13:16:07;23.40;99.90
14739;DHT22;7461;52.440;13.540;2022-08-19T13:18:35;23.40;99.90
14739;DHT22;7461;52.440;13.540;2022-08-19T13:21:02;23.40;99.90
14739;DHT22;7461;52.440;13.540;2022-08-19T13:23:30;23.50;99.90
14739;DHT22;7461;52.440;13.540;2022-08-19T13:25:58;23.50;99.90
14739;DHT22;7461;52.440;13.540;2022-08-19T13:28:26;23.60;99.90
14739;DHT22;7461;52.440;13.540;2022-08-19T13:31:15;23.50;99.90
14739;DHT22;7461;52.440;13.540;2022-08-19T13:34:00;23.50;99.90
14739;DHT22;7461;52.440;13.540;2022-08-19T13:36:26;23.60;99.90
14739;DHT22;7461;52.440;13.540;2022-08-19T13:38:53;23.60;99.90
14739;DHT22;7461;52.440;13.540;2022-08-19T13:41:22;23.60;99.90
14739;DHT22;7461;52.440;13.540;2022-08-19T13:43:50;23.60;99.90
14739;DHT22;7461;52.440;13.540;2022-08-19T13:46:17;23.60;99.90
14739;DHT22;7461;52.440;13.540;2022-08-19T13:48:45;23.70;99.90
14739;DHT22;7461;52.440;13.540;2022-08-19T13:51:12;23.70;99.90
14739;DHT22;7461;52.440;13.540;2022-08-19T13:53:43;23.70;99.90
14739;DHT22;7461;52.440;13.540;2022-08-19T13:56:12;23.70;99.90
14739;DHT22;7461;52.440;13.540;2022-08-19T13:58:39;23.70;99.90
14739;DHT22;7461;52.440;13.540;2022-08-19T14:01:08;23.70;99.90
14739;DHT22;7461;52.440;13.540;2022-08-19T14:03:36;23.70;99.90
14739;DHT22;7461;52.440;13.540;2022-08-19T14:06:04;23.60;99.90
14739;DHT22;7461;52.440;13.540;2022-08-19T14:08:31;23.60;99.90
14739;DHT22;7461;52.440;13.540;2022-08-19T14:10:58;23.60;99.90
14739;DHT22;7461;52.440;13.540;2022-08-19T14:13:25;23.60;99.90
14739;DHT22;7461;52.440;13.540;2022-08-19T14:15:52;23.50;99.90
14739;DHT22;7461;52.440;13.540;2022-08-19T14:18:21;23.50;99.90
14739;DHT22;7461;52.440;13.540;2022-08-19T14:20:48;23.50;99.90
14739;DHT22;7461;52.440;13.540;2022-08-19T14:23:15;23.50;99.90
14739;DHT22;7461;52.440;13.540;2022-08-19T14:25:42;23.50;99.90
14739;DHT22;7461;52.440;13.540;2022-08-19T14:28:09;23.40;99.90
14739;DHT22;7461;52.440;13.540;2022-08-19T14:30:37;23.40;99.90
14739;DHT22;7461;52.440;13.540;2022-08-19T14:33:06;23.40;99.90
14739;DHT22;7461;52.440;13.540;2022-08-19T14:35:35;23.40;99.90
14739;DHT22;7461;52.440;13.540;2022-08-19T14:38:03;23.30;99.90
14739;DHT22;7461;52.440;13.540;2022-08-19T14:40:30;23.40;99.90
14739;DHT22;7461;52.440;13.540;2022-08-19T14:42:59;23.30;99.90
14739;DHT22;7461;52.440;13.540;2022-08-19T14:45:30;23.30;99.90
14739;DHT22;7461;52.440;13.540;2022-08-19T14:47:58;23.40;99.90
14739;DHT22;7461;52.440;13.540;2022-08-19T14:50:26;23.40;99.90
14739;DHT22;7461;52.440;13.540;2022-08-19T14:53:03;23.40;99.90
14739;DHT22;7461;52.440;13.540;2022-08-19T14:55:33;23.30;99.90
14739;DHT22;7461;52.440;13.540;2022-08-19T14:58:00;23.30;99.90
14739;DHT22;7461;52.440;13.540;2022-08-19T15:00:29;23.30;99.90
14739;DHT22;7461;52.440;13.540;2022-08-19T15:02:56;23.40;99.90
14739;DHT22;7461;52.440;13.540;2022-08-19T15:05:22;23.30;99.90
14739;DHT22;7461;52.440;13.540;2022-08-19T15:07:49;23.30;99.90
14739;DHT22;7461;52.440;13.540;2022-08-19T15:10:18;23.30;99.90
14739;DHT22;7461;52.440;13.540;2022-08-19T15:12:45;23.30;99.90
14739;DHT22;7461;52.440;13.540;2022-08-19T15:15:14;23.30;99.90
14739;DHT22;7461;52.440;13.540;2022-08-19T15:17:43;23.30;99.90
14739;DHT22;7461;52.440;13.540;2022-08-19T15:20:14;23.30;99.90
14739;DHT22;7461;52.440;13.540;2022-08-19T15:22:41;23.30;99.90
14739;DHT22;7461;52.440;13.540;2022-08-19T15:25:10;23.30;99.90
14739;DHT22;7461;52.440;13.540;2022-08-19T15:27:39;23.30;99.90
14739;DHT22;7461;52.440;13.540;2022-08-19T15:30:07;23.30;99.90
14739;DHT22;7461;52.440;13.540;2022-08-19T15:32:34;23.30;99.90
14739;DHT22;7461;52.440;13.540;2022-08-19T15:35:02;23.30;99.90
14739;DHT22;7461;52.440;13.540;2022-08-19T15:37:29;23.30;99.90
14739;DHT22;7461;52.440;13.540;2022-08-19T15:39:56;23.30;99.90